sensor_id;sensor_type;location;lat;lon;timestamp;P1;durP1;ratioP1;P2;durP2;ratioP2
23175;SDS011;19910;42.652;23.332;2022-08-30T00:01:56;12.82;;;8.00;;
23175;SDS011;19910;42.652;23.332;2022-08-30T00:04:23;12.27;;;7.63;;
23175;SDS011;19910;42.652;23.332;2022-08-30T00:06:50;11.77;;;8.15;;
23175;SDS011;19910;42.652;23.332;2022-08-30T00:09:17;9.93;;;7.97;;
23175;SDS011;19910;42.652;23.332;2022-08-30T00:11:44;13.60;;;8.63;;
23175;SDS011;19910;42.652;23.332;2022-08-30T00:14:10;14.43;;;7.63;;
23175;SDS011;19910;42.652;23.332;2022-08-30T00:16:38;13.45;;;8.50;;
23175;SDS011;19910;42.652;23.332;2022-08-30T00:19:06;11.52;;;8.27;;
23175;SDS011;19910;42.652;23.332;2022-08-30T00:21:33;11.80;;;8.40;;
23175;SDS011;19910;42.652;23.332;2022-08-30T00:23:59;13.70;;;8.50;;
23175;SDS011;19910;42.652;23.332;2022-08-30T00:26:26;12.18;;;8.77;;
23175;SDS011;19910;42.652;23.332;2022-08-30T00:28:53;10.52;;;8.15;;
23175;SDS011;19910;42.652;23.332;2022-08-30T00:31:20;13.00;;;7.65;;
23175;SDS011;19910;42.652;23.332;2022-08-30T00:33:47;12.57;;;8.15;;
23175;SDS011;19910;42.652;23.332;2022-08-30T00:36:15;13.20;;;8.52;;
23175;SDS011;19910;42.652;23.332;2022-08-30T00:38:42;13.43;;;10.57;;
23175;SDS011;19910;42.652;23.332;2022-08-30T00:41:09;13.25;;;8.73;;
23175;SDS011;19910;42.652;23.332;2022-08-30T00:43:36;12.10;;;8.40;;
23175;SDS011;19910;42.652;23.332;2022-08-30T00:46:03;12.55;;;8.65;;
23175;SDS011;19910;42.652;23.332;2022-08-30T00:48:32;11.63;;;8.07;;
23175;SDS011;19910;42.652;23.332;2022-08-30T00:51:04;12.63;;;8.63;;
23175;SDS011;19910;42.652;23.332;2022-08-30T00:53:36;11.80;;;8.25;;
23175;SDS011;19910;42.652;23.332;2022-08-30T00:56:06;15.18;;;8.00;;
23175;SDS011;19910;42.652;23.332;2022-08-30T00:58:34;17.92;;;11.25;;
23175;SDS011;19910;42.652;23.332;2022-08-30T01:01:04;13.20;;;8.93;;
23175;SDS011;19910;42.652;23.332;2022-08-30T01:03:33;10.13;;;7.72;;
23175;SDS011;19910;42.652;23.332;2022-08-30T01:06:02;10.00;;;7.82;;
23175;SDS011;19910;42.652;23.332;2022-08-30T01:08:29;14.57;;;8.07;;
23175;SDS011;19910;42.652;23.332;2022-08-30T01:10:58;14.13;;;8.05;;
23175;SDS011;19910;42.652;23.332;2022-08-30T01:13:27;10.73;;;7.53;;
23175;SDS011;19910;42.652;23.332;2022-08-30T01:15:54;11.38;;;8.50;;
23175;SDS011;19910;42.652;23.332;2022-08-30T01:18:24;11.55;;;7.55;;
23175;SDS011;19910;42.652;23.332;2022-08-30T01:20:53;17.58;;;9.13;;
23175;SDS011;19910;42.652;23.332;2022-08-30T01:23:30;9.65;;;7.95;;
23175;SDS011;19910;42.652;23.332;2022-08-30T01:25:58;14.02;;;7.20;;
23175;SDS011;19910;42.652;23.332;2022-08-30T01:28:27;11.50;;;6.97;;
23175;SDS011;19910;42.652;23.332;2022-08-30T01:30:55;10.77;;;8.02;;
23175;SDS011;19910;42.652;23.332;2022-08-30T01:33:22;11.25;;;7.85;;
23175;SDS011;19910;42.652;23.332;2022-08-30T01:35:51;14.57;;;9.25;;
23175;SDS011;19910;42.652;23.332;2022-08-30T01:38:23;16.70;;;9.07;;
23175;SDS011;19910;42.652;23.332;2022-08-30T01:40:57;14.88;;;8.77;;
23175;SDS011;19910;42.652;23.332;2022-08-30T01:43:26;17.65;;;9.32;;
23175;SDS011;19910;42.652;23.332;2022-08-30T01:45:53;14.80;;;9.52;;
23175;SDS011;19910;42.652;23.332;2022-08-30T01:48:20;18.20;;;9.23;;
23175;SDS011;19910;42.652;23.332;2022-08-30T01:50:47;14.65;;;9.40;;
23175;SDS011;19910;42.652;23.332;2022-08-30T01:53:14;14.32;;;9.00;;
23175;SDS011;19910;42.652;23.332;2022-08-30T01:55:41;15.48;;;8.82;;
23175;SDS011;19910;42.652;23.332;2022-08-30T01:58:10;13.73;;;9.07;;
23175;SDS011;19910;42.652;23.332;2022-08-30T02:00:37;12.30;;;8.35;;
23175;SDS011;19910;42.652;23.332;2022-08-30T02:03:04;14.65;;;9.68;;
23175;SDS011;19910;42.652;23.332;2022-08-30T02:05:31;15.10;;;9.82;;
23175;SDS011;19910;42.652;23.332;2022-08-30T02:07:59;16.67;;;9.02;;
23175;SDS011;19910;42.652;23.332;2022-08-30T02:10:25;13.77;;;8.65;;
23175;SDS011;19910;42.652;23.332;2022-08-30T02:12:53;12.32;;;8.45;;
23175;SDS011;19910;42.652;23.332;2022-08-30T02:15:22;12.80;;;9.55;;
23175;SDS011;19910;42.652;23.332;2022-08-30T02:17:48;12.10;;;8.65;;
23175;SDS011;19910;42.652;23.332;2022-08-30T02:20:15;13.85;;;8.90;;
23175;SDS011;19910;42.652;23.332;2022-08-30T02:22:43;10.75;;;7.45;;
23175;SDS011;19910;42.652;23.332;2022-08-30T02:25:10;16.67;;;8.43;;
23175;SDS011;19910;42.652;23.332;2022-08-30T02:27:37;13.98;;;8.65;;
23175;SDS011;19910;42.652;23.332;2022-08-30T02:30:04;11.90;;;7.85;;
23175;SDS011;19910;42.652;23.332;2022-08-30T02:32:34;11.43;;;7.47;;
23175;SDS011;19910;42.652;23.332;2022-08-30T02:35:01;9.98;;;7.93;;
23175;SDS011;19910;42.652;23.332;2022-08-30T02:37:28;13.25;;;8.45;;
23175;SDS011;19910;42.652;23.332;2022-08-30T02:39:55;12.77;;;8.50;;
23175;SDS011;19910;42.652;23.332;2022-08-30T02:42:21;14.15;;;9.82;;
23175;SDS011;19910;42.652;23.332;2022-08-30T02:44:48;16.10;;;9.35;;
23175;SDS011;19910;42.652;23.332;2022-08-30T02:47:15;15.32;;;9.45;;
23175;SDS011;19910;42.652;23.332;2022-08-30T02:49:43;14.23;;;10.27;;
23175;SDS011;19910;42.652;23.332;2022-08-30T02:52:10;14.02;;;9.50;;
23175;SDS011;19910;42.652;23.332;2022-08-30T02:54:37;12.75;;;8.63;;
23175;SDS011;19910;42.652;23.332;2022-08-30T02:57:04;13.98;;;9.65;;
23175;SDS011;19910;42.652;23.332;2022-08-30T02:59:31;16.63;;;9.45;;
23175;SDS011;19910;42.652;23.332;2022-08-30T03:02:01;14.55;;;9.73;;
23175;SDS011;19910;42.652;23.332;2022-08-30T03:04:28;18.52;;;9.77;;
23175;SDS011;19910;42.652;23.332;2022-08-30T03:06:57;16.80;;;9.45;;
23175;SDS011;19910;42.652;23.332;2022-08-30T03:09:24;11.70;;;8.27;;
23175;SDS011;19910;42.652;23.332;2022-08-30T03:11:50;12.30;;;8.65;;
23175;SDS011;19910;42.652;23.332;2022-08-30T03:14:17;12.20;;;8.50;;
23175;SDS011;19910;42.652;23.332;2022-08-30T03:16:44;11.50;;;8.73;;
23175;SDS011;19910;42.652;23.332;2022-08-30T03:19:11;12.73;;;8.60;;
23175;SDS011;19910;42.652;23.332;2022-08-30T03:21:38;10.38;;;8.18;;
23175;SDS011;19910;42.652;23.332;2022-08-30T03:24:06;10.80;;;7.93;;
23175;SDS011;19910;42.652;23.332;2022-08-30T03:26:33;12.10;;;8.68;;
23175;SDS011;19910;42.652;23.332;2022-08-30T03:29:00;14.15;;;9.05;;
23175;SDS011;19910;42.652;23.332;2022-08-30T03:31:27;12.73;;;8.32;;
23175;SDS011;19910;42.652;23.332;2022-08-30T03:33:54;15.50;;;8.13;;
23175;SDS011;19910;42.652;23.332;2022-08-30T03:36:21;15.88;;;8.15;;
23175;SDS011;19910;42.652;23.332;2022-08-30T03:38:48;10.10;;;7.75;;
23175;SDS011;19910;42.652;23.332;2022-08-30T03:41:16;10.55;;;8.38;;
23175;SDS011;19910;42.652;23.332;2022-08-30T03:43:43;12.30;;;8.63;;
23175;SDS011;19910;42.652;23.332;2022-08-30T03:46:11;12.25;;;9.25;;
23175;SDS011;19910;42.652;23.332;2022-08-30T03:48:39;14.15;;;8.48;;
23175;SDS011;19910;42.652;23.332;2022-08-30T03:51:05;12.25;;;8.88;;
23175;SDS011;19910;42.652;23.332;2022-08-30T03:53:32;11.73;;;7.20;;
23175;SDS011;19910;42.652;23.332;2022-08-30T03:56:00;12.77;;;7.60;;
23175;SDS011;19910;42.652;23.332;2022-08-30T03:58:28;12.20;;;7.72;;
23175;SDS011;19910;42.652;23.332;2022-08-30T04:00:55;11.80;;;8.35;;
23175;SDS011;19910;42.652;23.332;2022-08-30T04:03:22;10.10;;;7.03;;
23175;SDS011;19910;42.652;23.332;2022-08-30T04:05:50;13.50;;;8.27;;
23175;SDS011;19910;42.652;23.332;2022-08-30T04:08:17;12.90;;;8.18;;
23175;SDS011;19910;42.652;23.332;2022-08-30T04:10:45;9.68;;;7.47;;
23175;SDS011;19910;42.652;23.332;2022-08-30T04:13:13;13.48;;;7.90;;
23175;SDS011;19910;42.652;23.332;2022-08-30T04:15:41;11.30;;;7.43;;
23175;SDS011;19910;42.652;23.332;2022-08-30T04:18:08;13.35;;;8.30;;
23175;SDS011;19910;42.652;23.332;2022-08-30T04:20:35;12.95;;;7.85;;
23175;SDS011;19910;42.652;23.332;2022-08-30T04:23:03;13.63;;;8.60;;
23175;SDS011;19910;42.652;23.332;2022-08-30T04:25:31;12.00;;;7.70;;
23175;SDS011;19910;42.652;23.332;2022-08-30T04:27:58;12.68;;;8.38;;
23175;SDS011;19910;42.652;23.332;2022-08-30T04:30:26;11.57;;;8.77;;
23175;SDS011;19910;42.652;23.332;2022-08-30T04:32:54;13.73;;;8.43;;
23175;SDS011;19910;42.652;23.332;2022-08-30T04:35:21;11.93;;;8.38;;
23175;SDS011;19910;42.652;23.332;2022-08-30T04:37:48;12.13;;;8.75;;
23175;SDS011;19910;42.652;23.332;2022-08-30T04:40:15;16.02;;;8.52;;
23175;SDS011;19910;42.652;23.332;2022-08-30T04:42:42;16.20;;;9.40;;
23175;SDS011;19910;42.652;23.332;2022-08-30T04:45:10;11.90;;;8.48;;
23175;SDS011;19910;42.652;23.332;2022-08-30T04:47:39;15.05;;;9.35;;
23175;SDS011;19910;42.652;23.332;2022-08-30T04:50:09;13.52;;;9.48;;
23175;SDS011;19910;42.652;23.332;2022-08-30T04:52:38;15.13;;;8.80;;
23175;SDS011;19910;42.652;23.332;2022-08-30T04:55:05;12.60;;;8.48;;
23175;SDS011;19910;42.652;23.332;2022-08-30T04:57:34;15.48;;;9.43;;
23175;SDS011;19910;42.652;23.332;2022-08-30T05:00:03;17.75;;;9.63;;
23175;SDS011;19910;42.652;23.332;2022-08-30T05:02:31;15.45;;;9.95;;
23175;SDS011;19910;42.652;23.332;2022-08-30T05:04:58;19.73;;;10.32;;
23175;SDS011;19910;42.652;23.332;2022-08-30T05:07:44;18.58;;;9.55;;
23175;SDS011;19910;42.652;23.332;2022-08-30T05:10:10;18.30;;;11.07;;
23175;SDS011;19910;42.652;23.332;2022-08-30T05:12:37;14.00;;;9.55;;
23175;SDS011;19910;42.652;23.332;2022-08-30T05:15:05;17.52;;;11.77;;
23175;SDS011;19910;42.652;23.332;2022-08-30T05:17:32;24.00;;;12.18;;
23175;SDS011;19910;42.652;23.332;2022-08-30T05:19:59;18.15;;;10.70;;
23175;SDS011;19910;42.652;23.332;2022-08-30T05:22:27;15.77;;;9.70;;
23175;SDS011;19910;42.652;23.332;2022-08-30T05:24:55;13.95;;;9.57;;
23175;SDS011;19910;42.652;23.332;2022-08-30T05:27:22;17.25;;;9.27;;
23175;SDS011;19910;42.652;23.332;2022-08-30T05:29:49;14.45;;;9.52;;
23175;SDS011;19910;42.652;23.332;2022-08-30T05:32:16;18.40;;;9.65;;
23175;SDS011;19910;42.652;23.332;2022-08-30T05:34:43;16.98;;;13.13;;
23175;SDS011;19910;42.652;23.332;2022-08-30T05:37:09;13.88;;;10.18;;
23175;SDS011;19910;42.652;23.332;2022-08-30T05:39:36;15.18;;;10.05;;
23175;SDS011;19910;42.652;23.332;2022-08-30T05:42:05;16.65;;;10.43;;
23175;SDS011;19910;42.652;23.332;2022-08-30T05:44:32;21.80;;;10.30;;
23175;SDS011;19910;42.652;23.332;2022-08-30T05:46:59;18.52;;;11.38;;
23175;SDS011;19910;42.652;23.332;2022-08-30T05:49:26;16.15;;;10.10;;
23175;SDS011;19910;42.652;23.332;2022-08-30T05:51:52;13.80;;;10.15;;
23175;SDS011;19910;42.652;23.332;2022-08-30T05:54:19;17.95;;;12.00;;
23175;SDS011;19910;42.652;23.332;2022-08-30T05:56:46;14.50;;;10.80;;
23175;SDS011;19910;42.652;23.332;2022-08-30T05:59:14;20.48;;;11.60;;
23175;SDS011;19910;42.652;23.332;2022-08-30T06:01:42;20.73;;;14.38;;
23175;SDS011;19910;42.652;23.332;2022-08-30T06:04:11;18.65;;;11.32;;
23175;SDS011;19910;42.652;23.332;2022-08-30T06:06:39;17.23;;;11.23;;
23175;SDS011;19910;42.652;23.332;2022-08-30T06:09:08;14.30;;;10.45;;
23175;SDS011;19910;42.652;23.332;2022-08-30T06:11:35;17.08;;;12.20;;
23175;SDS011;19910;42.652;23.332;2022-08-30T06:14:03;17.70;;;12.30;;
23175;SDS011;19910;42.652;23.332;2022-08-30T06:16:32;18.17;;;11.55;;
23175;SDS011;19910;42.652;23.332;2022-08-30T06:18:59;20.45;;;15.35;;
23175;SDS011;19910;42.652;23.332;2022-08-30T06:21:27;19.95;;;11.98;;
23175;SDS011;19910;42.652;23.332;2022-08-30T06:23:56;16.80;;;11.40;;
23175;SDS011;19910;42.652;23.332;2022-08-30T06:26:24;17.13;;;11.75;;
23175;SDS011;19910;42.652;23.332;2022-08-30T06:28:51;16.42;;;10.95;;
23175;SDS011;19910;42.652;23.332;2022-08-30T06:31:19;24.85;;;12.80;;
23175;SDS011;19910;42.652;23.332;2022-08-30T06:33:49;21.88;;;16.52;;
23175;SDS011;19910;42.652;23.332;2022-08-30T06:36:17;20.67;;;14.82;;
23175;SDS011;19910;42.652;23.332;2022-08-30T06:38:46;22.67;;;12.00;;
23175;SDS011;19910;42.652;23.332;2022-08-30T06:41:16;16.75;;;11.10;;
23175;SDS011;19910;42.652;23.332;2022-08-30T06:43:47;22.38;;;12.05;;
23175;SDS011;19910;42.652;23.332;2022-08-30T06:46:15;21.17;;;13.75;;
23175;SDS011;19910;42.652;23.332;2022-08-30T06:48:44;18.05;;;14.20;;
23175;SDS011;19910;42.652;23.332;2022-08-30T06:51:12;20.23;;;14.32;;
23175;SDS011;19910;42.652;23.332;2022-08-30T06:53:39;19.55;;;14.10;;
23175;SDS011;19910;42.652;23.332;2022-08-30T06:56:07;18.45;;;14.27;;
23175;SDS011;19910;42.652;23.332;2022-08-30T06:58:36;18.33;;;13.70;;
23175;SDS011;19910;42.652;23.332;2022-08-30T07:01:06;17.45;;;12.82;;
23175;SDS011;19910;42.652;23.332;2022-08-30T07:03:33;19.95;;;13.13;;
23175;SDS011;19910;42.652;23.332;2022-08-30T07:06:00;19.05;;;11.25;;
23175;SDS011;19910;42.652;23.332;2022-08-30T07:08:29;17.58;;;10.65;;
23175;SDS011;19910;42.652;23.332;2022-08-30T07:10:55;18.50;;;10.70;;
23175;SDS011;19910;42.652;23.332;2022-08-30T07:13:23;15.40;;;10.50;;
23175;SDS011;19910;42.652;23.332;2022-08-30T07:15:50;15.52;;;10.13;;
23175;SDS011;19910;42.652;23.332;2022-08-30T07:18:17;20.52;;;13.10;;
23175;SDS011;19910;42.652;23.332;2022-08-30T07:21:04;18.50;;;14.60;;
23175;SDS011;19910;42.652;23.332;2022-08-30T07:23:35;17.20;;;14.25;;
23175;SDS011;19910;42.652;23.332;2022-08-30T07:26:02;26.67;;;12.55;;
23175;SDS011;19910;42.652;23.332;2022-08-30T07:28:30;17.92;;;15.30;;
23175;SDS011;19910;42.652;23.332;2022-08-30T07:30:57;16.23;;;11.20;;
23175;SDS011;19910;42.652;23.332;2022-08-30T07:33:24;17.92;;;11.32;;
23175;SDS011;19910;42.652;23.332;2022-08-30T07:35:51;20.15;;;12.52;;
23175;SDS011;19910;42.652;23.332;2022-08-30T07:38:18;18.13;;;11.82;;
23175;SDS011;19910;42.652;23.332;2022-08-30T07:40:47;18.77;;;11.50;;
23175;SDS011;19910;42.652;23.332;2022-08-30T07:43:14;16.02;;;10.88;;
23175;SDS011;19910;42.652;23.332;2022-08-30T07:45:40;15.38;;;10.43;;
23175;SDS011;19910;42.652;23.332;2022-08-30T07:48:07;20.92;;;10.93;;
23175;SDS011;19910;42.652;23.332;2022-08-30T07:50:35;16.83;;;10.15;;
23175;SDS011;19910;42.652;23.332;2022-08-30T07:53:03;17.23;;;10.23;;
23175;SDS011;19910;42.652;23.332;2022-08-30T07:55:30;18.25;;;9.45;;
23175;SDS011;19910;42.652;23.332;2022-08-30T07:57:58;16.73;;;11.80;;
23175;SDS011;19910;42.652;23.332;2022-08-30T08:00:25;14.52;;;9.93;;
23175;SDS011;19910;42.652;23.332;2022-08-30T08:02:52;12.75;;;9.23;;
23175;SDS011;19910;42.652;23.332;2022-08-30T08:05:19;13.93;;;9.75;;
23175;SDS011;19910;42.652;23.332;2022-08-30T08:07:46;13.10;;;8.90;;
23175;SDS011;19910;42.652;23.332;2022-08-30T08:10:13;12.57;;;9.27;;
23175;SDS011;19910;42.652;23.332;2022-08-30T08:12:41;17.38;;;10.70;;
23175;SDS011;19910;42.652;23.332;2022-08-30T08:15:10;16.20;;;10.48;;
23175;SDS011;19910;42.652;23.332;2022-08-30T08:17:37;19.48;;;12.50;;
23175;SDS011;19910;42.652;23.332;2022-08-30T08:20:04;17.77;;;12.10;;
23175;SDS011;19910;42.652;23.332;2022-08-30T08:22:31;16.02;;;11.30;;
23175;SDS011;19910;42.652;23.332;2022-08-30T08:24:58;16.45;;;11.60;;
23175;SDS011;19910;42.652;23.332;2022-08-30T08:27:25;14.13;;;10.45;;
23175;SDS011;19910;42.652;23.332;2022-08-30T08:29:53;18.77;;;10.85;;
23175;SDS011;19910;42.652;23.332;2022-08-30T08:32:21;17.08;;;10.40;;
23175;SDS011;19910;42.652;23.332;2022-08-30T08:34:48;14.00;;;10.80;;
23175;SDS011;19910;42.652;23.332;2022-08-30T08:37:15;20.67;;;14.05;;
23175;SDS011;19910;42.652;23.332;2022-08-30T08:39:42;21.23;;;13.40;;
23175;SDS011;19910;42.652;23.332;2022-08-30T08:42:11;16.48;;;13.70;;
23175;SDS011;19910;42.652;23.332;2022-08-30T08:44:46;18.98;;;12.77;;
23175;SDS011;19910;42.652;23.332;2022-08-30T08:47:23;16.98;;;12.52;;
23175;SDS011;19910;42.652;23.332;2022-08-30T08:49:54;25.17;;;14.13;;
23175;SDS011;19910;42.652;23.332;2022-08-30T08:52:25;19.05;;;12.57;;
23175;SDS011;19910;42.652;23.332;2022-08-30T08:55:13;21.65;;;13.27;;
23175;SDS011;19910;42.652;23.332;2022-08-30T08:57:43;13.43;;;9.98;;
23175;SDS011;19910;42.652;23.332;2022-08-30T09:00:12;23.60;;;13.82;;
23175;SDS011;19910;42.652;23.332;2022-08-30T09:02:42;18.98;;;12.88;;
23175;SDS011;19910;42.652;23.332;2022-08-30T09:05:12;15.02;;;12.05;;
23175;SDS011;19910;42.652;23.332;2022-08-30T09:07:43;13.20;;;10.05;;
23175;SDS011;19910;42.652;23.332;2022-08-30T09:10:13;12.27;;;9.32;;
23175;SDS011;19910;42.652;23.332;2022-08-30T09:12:41;16.23;;;11.55;;
23175;SDS011;19910;42.652;23.332;2022-08-30T09:15:11;18.90;;;12.23;;
23175;SDS011;19910;42.652;23.332;2022-08-30T09:17:54;15.68;;;11.60;;
23175;SDS011;19910;42.652;23.332;2022-08-30T09:20:23;21.23;;;12.40;;
23175;SDS011;19910;42.652;23.332;2022-08-30T09:22:52;22.67;;;14.73;;
23175;SDS011;19910;42.652;23.332;2022-08-30T09:25:21;21.42;;;14.88;;
23175;SDS011;19910;42.652;23.332;2022-08-30T09:27:50;19.75;;;15.32;;
23175;SDS011;19910;42.652;23.332;2022-08-30T09:30:20;20.85;;;12.80;;
23175;SDS011;19910;42.652;23.332;2022-08-30T09:32:50;20.38;;;13.80;;
23175;SDS011;19910;42.652;23.332;2022-08-30T09:35:21;22.55;;;16.25;;
23175;SDS011;19910;42.652;23.332;2022-08-30T09:37:54;23.13;;;16.73;;
23175;SDS011;19910;42.652;23.332;2022-08-30T09:40:24;21.88;;;16.23;;
23175;SDS011;19910;42.652;23.332;2022-08-30T09:42:57;18.55;;;12.30;;
23175;SDS011;19910;42.652;23.332;2022-08-30T09:45:30;17.33;;;11.77;;
23175;SDS011;19910;42.652;23.332;2022-08-30T09:48:01;20.58;;;15.23;;
23175;SDS011;19910;42.652;23.332;2022-08-30T09:50:47;20.92;;;15.18;;
23175;SDS011;19910;42.652;23.332;2022-08-30T09:53:22;19.20;;;14.02;;
23175;SDS011;19910;42.652;23.332;2022-08-30T09:55:59;25.33;;;15.95;;
23175;SDS011;19910;42.652;23.332;2022-08-30T09:58:38;16.02;;;12.90;;
23175;SDS011;19910;42.652;23.332;2022-08-30T10:01:27;17.42;;;11.85;;
23175;SDS011;19910;42.652;23.332;2022-08-30T10:04:00;16.33;;;11.68;;
23175;SDS011;19910;42.652;23.332;2022-08-30T10:06:32;14.00;;;9.20;;
23175;SDS011;19910;42.652;23.332;2022-08-30T10:09:08;13.82;;;10.63;;
23175;SDS011;19910;42.652;23.332;2022-08-30T10:11:45;15.20;;;10.23;;
23175;SDS011;19910;42.652;23.332;2022-08-30T10:14:25;17.92;;;11.18;;
23175;SDS011;19910;42.652;23.332;2022-08-30T10:17:00;20.23;;;12.50;;
23175;SDS011;19910;42.652;23.332;2022-08-30T10:22:23;18.60;;;13.27;;
23175;SDS011;19910;42.652;23.332;2022-08-30T10:24:58;18.67;;;13.27;;
23175;SDS011;19910;42.652;23.332;2022-08-30T10:27:31;18.67;;;12.80;;
23175;SDS011;19910;42.652;23.332;2022-08-30T10:30:05;18.52;;;12.57;;
23175;SDS011;19910;42.652;23.332;2022-08-30T10:32:37;17.17;;;13.02;;
23175;SDS011;19910;42.652;23.332;2022-08-30T10:35:12;15.70;;;12.50;;
23175;SDS011;19910;42.652;23.332;2022-08-30T10:37:44;17.42;;;13.02;;
23175;SDS011;19910;42.652;23.332;2022-08-30T10:40:16;23.00;;;13.05;;
23175;SDS011;19910;42.652;23.332;2022-08-30T10:43:07;20.75;;;13.48;;
23175;SDS011;19910;42.652;23.332;2022-08-30T10:45:46;23.00;;;14.43;;
23175;SDS011;19910;42.652;23.332;2022-08-30T10:48:16;21.83;;;14.35;;
23175;SDS011;19910;42.652;23.332;2022-08-30T10:50:50;21.30;;;14.20;;
23175;SDS011;19910;42.652;23.332;2022-08-30T10:53:21;21.75;;;15.10;;
23175;SDS011;19910;42.652;23.332;2022-08-30T10:56:01;21.95;;;14.02;;
23175;SDS011;19910;42.652;23.332;2022-08-30T10:58:30;22.38;;;14.20;;
23175;SDS011;19910;42.652;23.332;2022-08-30T11:01:06;23.83;;;13.85;;
23175;SDS011;19910;42.652;23.332;2022-08-30T11:07:00;21.83;;;13.15;;
23175;SDS011;19910;42.652;23.332;2022-08-30T11:09:42;18.88;;;13.60;;
23175;SDS011;19910;42.652;23.332;2022-08-30T11:12:32;19.83;;;13.68;;
23175;SDS011;19910;42.652;23.332;2022-08-30T11:15:10;19.13;;;12.45;;
23175;SDS011;19910;42.652;23.332;2022-08-30T11:17:43;18.25;;;12.82;;
23175;SDS011;19910;42.652;23.332;2022-08-30T11:20:21;21.38;;;13.20;;
23175;SDS011;19910;42.652;23.332;2022-08-30T11:23:14;18.75;;;12.43;;
23175;SDS011;19910;42.652;23.332;2022-08-30T11:25:50;24.05;;;12.88;;
23175;SDS011;19910;42.652;23.332;2022-08-30T11:34:10;16.17;;;11.07;;
23175;SDS011;19910;42.652;23.332;2022-08-30T11:42:26;12.07;;;9.05;;
23175;SDS011;19910;42.652;23.332;2022-08-30T11:48:05;13.15;;;9.30;;
23175;SDS011;19910;42.652;23.332;2022-08-30T11:50:35;16.67;;;9.90;;
23175;SDS011;19910;42.652;23.332;2022-08-30T11:53:15;14.63;;;9.30;;
23175;SDS011;19910;42.652;23.332;2022-08-30T11:55:57;12.30;;;8.68;;
23175;SDS011;19910;42.652;23.332;2022-08-30T11:58:33;13.55;;;9.05;;
23175;SDS011;19910;42.652;23.332;2022-08-30T12:01:12;10.02;;;8.63;;
23175;SDS011;19910;42.652;23.332;2022-08-30T12:03:42;14.18;;;9.25;;
23175;SDS011;19910;42.652;23.332;2022-08-30T12:06:10;12.88;;;9.50;;
23175;SDS011;19910;42.652;23.332;2022-08-30T12:08:58;15.77;;;9.70;;
23175;SDS011;19910;42.652;23.332;2022-08-30T12:14:41;17.42;;;9.75;;
23175;SDS011;19910;42.652;23.332;2022-08-30T12:20:15;14.50;;;10.02;;
23175;SDS011;19910;42.652;23.332;2022-08-30T12:22:48;17.63;;;10.45;;
23175;SDS011;19910;42.652;23.332;2022-08-30T12:25:17;16.17;;;10.00;;
23175;SDS011;19910;42.652;23.332;2022-08-30T12:27:50;14.40;;;9.30;;
23175;SDS011;19910;42.652;23.332;2022-08-30T12:30:32;10.88;;;9.32;;
23175;SDS011;19910;42.652;23.332;2022-08-30T12:33:02;11.82;;;9.40;;
23175;SDS011;19910;42.652;23.332;2022-08-30T12:35:29;13.88;;;9.93;;
23175;SDS011;19910;42.652;23.332;2022-08-30T12:37:58;19.50;;;10.68;;
23175;SDS011;19910;42.652;23.332;2022-08-30T12:40:26;14.80;;;10.27;;
23175;SDS011;19910;42.652;23.332;2022-08-30T12:42:58;12.05;;;9.27;;
23175;SDS011;19910;42.652;23.332;2022-08-30T12:45:29;11.43;;;9.77;;
23175;SDS011;19910;42.652;23.332;2022-08-30T12:47:59;14.52;;;10.05;;
23175;SDS011;19910;42.652;23.332;2022-08-30T12:50:30;13.77;;;9.98;;
23175;SDS011;19910;42.652;23.332;2022-08-30T12:53:00;13.20;;;9.50;;
23175;SDS011;19910;42.652;23.332;2022-08-30T12:55:30;16.42;;;10.15;;
23175;SDS011;19910;42.652;23.332;2022-08-30T12:58:02;14.05;;;9.77;;
23175;SDS011;19910;42.652;23.332;2022-08-30T13:00:33;12.43;;;9.82;;
23175;SDS011;19910;42.652;23.332;2022-08-30T13:03:23;17.00;;;10.88;;
23175;SDS011;19910;42.652;23.332;2022-08-30T13:05:54;14.02;;;9.93;;
23175;SDS011;19910;42.652;23.332;2022-08-30T13:08:22;11.70;;;9.98;;
23175;SDS011;19910;42.652;23.332;2022-08-30T13:10:52;14.02;;;10.32;;
23175;SDS011;19910;42.652;23.332;2022-08-30T13:13:31;14.20;;;11.23;;
23175;SDS011;19910;42.652;23.332;2022-08-30T13:16:10;14.35;;;10.35;;
23175;SDS011;19910;42.652;23.332;2022-08-30T13:18:48;18.70;;;11.20;;
23175;SDS011;19910;42.652;23.332;2022-08-30T13:21:26;16.42;;;10.18;;
23175;SDS011;19910;42.652;23.332;2022-08-30T13:23:56;17.70;;;10.57;;
23175;SDS011;19910;42.652;23.332;2022-08-30T13:26:25;13.07;;;10.40;;
23175;SDS011;19910;42.652;23.332;2022-08-30T13:28:55;14.75;;;11.02;;
23175;SDS011;19910;42.652;23.332;2022-08-30T13:31:23;13.55;;;10.45;;
23175;SDS011;19910;42.652;23.332;2022-08-30T13:33:51;16.50;;;10.85;;
23175;SDS011;19910;42.652;23.332;2022-08-30T13:36:19;13.15;;;10.13;;
23175;SDS011;19910;42.652;23.332;2022-08-30T13:38:47;14.15;;;10.88;;
23175;SDS011;19910;42.652;23.332;2022-08-30T13:41:15;19.05;;;10.65;;
23175;SDS011;19910;42.652;23.332;2022-08-30T13:43:42;17.15;;;10.18;;
23175;SDS011;19910;42.652;23.332;2022-08-30T13:46:11;17.58;;;11.82;;
23175;SDS011;19910;42.652;23.332;2022-08-30T13:48:39;17.70;;;10.98;;
23175;SDS011;19910;42.652;23.332;2022-08-30T13:51:06;19.30;;;10.88;;
23175;SDS011;19910;42.652;23.332;2022-08-30T13:53:34;15.75;;;11.23;;
23175;SDS011;19910;42.652;23.332;2022-08-30T13:56:01;15.23;;;11.02;;
23175;SDS011;19910;42.652;23.332;2022-08-30T13:58:29;16.17;;;10.95;;
23175;SDS011;19910;42.652;23.332;2022-08-30T14:00:57;15.43;;;11.38;;
23175;SDS011;19910;42.652;23.332;2022-08-30T14:03:26;15.95;;;11.32;;
23175;SDS011;19910;42.652;23.332;2022-08-30T14:05:53;16.85;;;10.75;;
23175;SDS011;19910;42.652;23.332;2022-08-30T14:08:21;14.18;;;10.85;;
23175;SDS011;19910;42.652;23.332;2022-08-30T14:10:49;15.52;;;10.43;;
23175;SDS011;19910;42.652;23.332;2022-08-30T14:13:16;16.10;;;11.32;;
23175;SDS011;19910;42.652;23.332;2022-08-30T14:15:42;13.52;;;11.18;;
23175;SDS011;19910;42.652;23.332;2022-08-30T14:18:09;14.30;;;10.90;;
23175;SDS011;19910;42.652;23.332;2022-08-30T14:20:38;17.42;;;12.10;;
23175;SDS011;19910;42.652;23.332;2022-08-30T14:23:05;19.30;;;11.70;;
23175;SDS011;19910;42.652;23.332;2022-08-30T14:25:32;18.58;;;11.60;;
23175;SDS011;19910;42.652;23.332;2022-08-30T14:27:59;16.35;;;11.82;;
23175;SDS011;19910;42.652;23.332;2022-08-30T14:30:26;15.43;;;11.57;;
23175;SDS011;19910;42.652;23.332;2022-08-30T14:32:52;18.02;;;11.13;;
23175;SDS011;19910;42.652;23.332;2022-08-30T14:35:20;14.55;;;10.57;;
23175;SDS011;19910;42.652;23.332;2022-08-30T14:37:48;16.23;;;12.07;;
23175;SDS011;19910;42.652;23.332;2022-08-30T14:40:16;19.02;;;12.52;;
23175;SDS011;19910;42.652;23.332;2022-08-30T14:42:43;15.68;;;12.15;;
23175;SDS011;19910;42.652;23.332;2022-08-30T14:45:10;19.55;;;12.05;;
23175;SDS011;19910;42.652;23.332;2022-08-30T14:47:37;17.92;;;11.52;;
23175;SDS011;19910;42.652;23.332;2022-08-30T14:50:05;17.02;;;11.95;;
23175;SDS011;19910;42.652;23.332;2022-08-30T14:52:32;14.35;;;11.27;;
23175;SDS011;19910;42.652;23.332;2022-08-30T14:55:02;17.58;;;12.00;;